Pagrindinis puslapis
METAR-TAF:

METAR-TAF

Oro uostai :

Zagrebas, Kroatija

platuma: 45-44N, ilguma: 016-04E, Aukštis: 106 m

Dabartinis oras

Ataskaita buvo paskelbta 30 minutes, ne 13:30 UTC
Vėjas 1 kt nuo kintamojo kryptimis
Temperatūra 19°C
Drėgmė 37%
Slėgis 1031 hPa
Matomumas 10 km arba daugiau
nėra debesų žemiau 1500 m ir nėra kamuolinių lietaus debesų

METAR: LDZA 251330Z VRB01KT CAVOK 19/04 Q1031 NOSIG

Laikas: 15:00 (14:00 UTC)

Prognozė

Ataskaita buvo paskelbta 2 valandos ir 35 minutes, ne 11:25 UTC
Prognozė galioja nuo 25 metu 12 UTC su 26 metu 12 UTC
Vėjas 2 kt nuo kintamojo kryptimis
Matomumas 10 km arba daugiau
nėra debesų žemiau 1500 m ir nėra kamuolinių lietaus debesų
Tikimybė 40%
nuo 26 metu 03 UTC su 26 metu 08 UTC
Matomumas: 3000 m
rūkana
Tikimybė 30%
nuo 26 metu 05 UTC su 26 metu 08 UTC
Matomumas: 1000 m
rūkana

TAF: LDZA 251125Z 2512/2612 VRB02KT CAVOK TX20/2514Z TN01/2606Z PROB40 2603/2608 3000 BR PROB30 2605/2608 1000 BR

Orai ataskaitas ir orų prognozės (METAR, TAF).

turimą stotys yra geltonos ir raudonos taškus žemėlapyje.

Perkelti pele per norėdami pamatyti stoties vardą.

Tada spustelėkite, norėdami matyti oro stebėjimo ir prognozės.

Norėdami pakeisti žemėlapį: spustelėkite ant žalios mygtukų su juodo kryžiaus žemyn,; žalią mygtuką su brūkšneliu, jei norite nutolinti; arba žalių rodyklių gretimoms žemėlapius.


METAR-TAF: